Genegantslet, New York
Current Conditions -  °F | °C
As of 11:53 AM on Sunday 21 Dec 2014 (Local Time) from KBGM Reporting Station
Overcast Overcast  
Wind Chill: -3°   Ceiling: 1800
Heat Index: -3°   Visibility: 10mi
Dew Point: -7°   Wind: 3mph
Humidity: 75%   Direction: 350°N
Pressure: 30.24"   Gusts: NA
Location:  42.3542°N, 75.7469°W
Report Text: KBGM 211653Z 35003KT 10SM OVC018 M03/M07 A3024 RMK AO2 SLP264 T10281067
Loading
Personal Weather Stations






























Interactive Weather Map New forecast layout! Learn more

10-Day Weather Forecast

Advertisements
Track Severe Weather on mobile